Hauptseite
METAR-TAF:

METAR-TAF

Flughäfen :

Flughafen Augsburg

Augsburg, Deutschland

Breite: 48-26N, Länge: 010-56E, Höhe: 461 m

Beobachtung

Neuester Wetterbericht von vor 13 Minuten, um 14:50 UTC
Wind 8 kt aus Nordwest
Temperatur 7°C
Luftfeuchtigkeit 49%
Luftdruck 1027 hPa
Sichtweite 10 km oder mehr
keine Wolken unter 1500 m und keine Kumulonimbus oder Gewitterwolken

METAR: EDMA 261450Z 31008KT CAVOK 07/M03 Q1027

Zeit: 16:03 (15:03 UTC)

Prognose

Neuester Wetterbericht von vor 1 Stunde und 3 Minuten, um 14:00 UTC
Gültige Prognose vom 26 um 15 UTC bis 26 um 24 UTC
Wind 9 kt aus West/Nordwest
Sichtweite 10 km oder mehr
Durchbrochene Bewölkung in der Höhe von 4500 ft
Übergehend zu
vom 26 um 17 UTC bis 26 um 19 UTC
Wind 4 kt aus West

TAF: EDMA 261400Z 2615/2624 30009KT 9999 BKN045 BECMG 2617/2619 27004KT

Wetterbeobachtungen und Prognosen von mehr als 4000 Flughäfen (METAR und TAF Bericht).

Die verfügbaren Stationen werden durch gelbe und rote Markierungen auf der Karte dargestellt.

Führen Sie die Maus auf sie, um den Namen der Station zu sehen.

Darauf klicken, um die Beobachtung von Wetterbeobachtungen und Prognosen zu sehen.

Um die Karte zu ändern : klicken Sie auf den grünen Tasten mit einem schwarzen Kreuz Zum Vergrößern, auf den grünen Button mit einem Gedankenstrich zu verkleinern, oder auf die grünen Pfeile für benachbarte Karten.


METAR-TAF: